createdAt,value
2018-12-15T00:01:58.825Z,29.47
2018-12-15T00:06:10.819Z,15.40
2018-12-15T00:10:23.022Z,14.63
2018-12-15T00:14:35.135Z,13.50
2018-12-15T00:18:47.251Z,2.73
2018-12-15T00:22:59.346Z,3.27
2018-12-15T00:27:11.442Z,2.80
2018-12-15T00:31:23.648Z,2.53
2018-12-15T00:35:35.350Z,3.07
2018-12-15T00:39:47.498Z,3.27
2018-12-15T00:43:59.308Z,2.83
2018-12-15T00:48:11.331Z,2.50
2018-12-15T00:52:24.046Z,3.27
2018-12-15T00:56:35.967Z,2.37
2018-12-15T01:00:47.852Z,2.50
2018-12-15T01:04:59.828Z,2.90
2018-12-15T01:09:11.835Z,2.87
2018-12-15T01:13:24.118Z,3.37
2018-12-15T01:17:35.669Z,3.03
2018-12-15T01:21:47.776Z,2.60
2018-12-15T01:25:59.379Z,3.20
2018-12-15T01:30:11.339Z,2.87
2018-12-15T01:34:23.340Z,2.37
2018-12-15T01:38:35.447Z,2.17
2018-12-15T01:42:47.555Z,1.70
2018-12-15T01:46:59.656Z,2.33
2018-12-15T01:51:11.750Z,2.17
2018-12-15T01:55:23.337Z,2.97
2018-12-15T01:59:35.727Z,2.43
2018-12-15T02:03:47.326Z,2.20
2018-12-15T02:07:59.329Z,2.63
2018-12-15T02:12:11.130Z,2.03
2018-12-15T02:16:22.956Z,2.13
2018-12-15T02:20:34.907Z,2.80
2018-12-15T02:24:46.936Z,2.50
2018-12-15T02:28:59.001Z,2.27
2018-12-15T02:33:11.095Z,2.27
2018-12-15T02:37:22.671Z,2.17
2018-12-15T02:41:35.070Z,2.27
2018-12-15T02:45:46.783Z,1.90
2018-12-15T02:49:58.632Z,1.97
2018-12-15T02:54:10.728Z,1.97
2018-12-15T02:58:22.253Z,2.40
2018-12-15T03:02:33.980Z,2.33
2018-12-15T03:06:45.736Z,2.10
2018-12-15T03:10:57.766Z,2.10
2018-12-15T03:15:09.756Z,2.40
2018-12-15T03:19:21.842Z,2.50
2018-12-15T03:23:35.491Z,1.40
2018-12-15T03:27:47.495Z,1.87
2018-12-15T03:31:59.608Z,1.27
2018-12-15T03:36:11.780Z,1.63
2018-12-15T03:40:23.862Z,3.30
2018-12-15T03:44:35.880Z,4.30
2018-12-15T03:48:47.836Z,4.83
2018-12-15T03:53:00.040Z,4.30
2018-12-15T03:57:11.741Z,4.20
2018-12-15T04:01:23.591Z,4.40
2018-12-15T04:05:35.335Z,4.43
2018-12-15T04:09:47.360Z,1.63
2018-12-15T04:13:59.474Z,2.00
2018-12-15T04:18:11.106Z,3.87
2018-12-15T04:22:23.296Z,3.00
2018-12-15T04:26:35.010Z,1.90
2018-12-15T04:30:46.920Z,2.23
2018-12-15T04:34:58.784Z,1.90
2018-12-15T04:39:11.025Z,1.70
2018-12-15T04:43:22.890Z,1.70
2018-12-15T04:47:35.082Z,2.30
2018-12-15T04:51:47.196Z,2.53
2018-12-15T04:55:58.722Z,2.50
2018-12-15T05:00:10.568Z,2.60
2018-12-15T05:04:22.415Z,3.93
2018-12-15T05:08:34.310Z,4.73
2018-12-15T05:12:46.418Z,4.97
2018-12-15T05:16:58.523Z,4.70
2018-12-15T05:21:10.700Z,4.30
2018-12-15T05:25:23.002Z,4.13
2018-12-15T05:29:35.391Z,3.50
2018-12-15T05:33:47.156Z,4.23
2018-12-15T05:37:59.116Z,3.67
2018-12-15T05:42:11.079Z,3.33
2018-12-15T05:46:23.083Z,3.03
2018-12-15T05:50:35.271Z,3.63
2018-12-15T05:54:46.808Z,3.20
2018-12-15T05:58:58.533Z,4.63
2018-12-15T06:03:10.336Z,4.57
2018-12-15T06:07:22.290Z,5.20
2018-12-15T06:11:34.422Z,4.67
2018-12-15T06:15:46.423Z,3.80
2018-12-15T06:19:58.531Z,3.03
2018-12-15T06:24:10.523Z,3.20
2018-12-15T06:28:22.707Z,3.77
2018-12-15T06:32:34.835Z,4.23
2018-12-15T06:36:46.851Z,4.20
2018-12-15T06:40:58.979Z,4.30
2018-12-15T06:45:11.123Z,5.40
2018-12-15T06:49:24.119Z,5.50
2018-12-15T06:53:35.911Z,4.13
2018-12-15T06:57:47.886Z,4.40
2018-12-15T07:01:59.644Z,3.77
2018-12-15T07:06:11.506Z,4.60
2018-12-15T07:10:23.718Z,3.90
2018-12-15T07:14:35.806Z,4.53
2018-12-15T07:18:47.808Z,4.47
2018-12-15T07:23:00.107Z,4.33
2018-12-15T07:27:12.243Z,5.57
2018-12-15T07:31:24.470Z,7.70
2018-12-15T07:35:36.557Z,6.33
2018-12-15T07:39:49.346Z,6.33
2018-12-15T07:44:01.146Z,5.73
2018-12-15T07:48:12.990Z,8.33
2018-12-15T07:52:25.146Z,6.03
2018-12-15T07:56:38.495Z,5.37
2018-12-15T08:00:50.757Z,4.80
2018-12-15T08:05:02.987Z,4.20
2018-12-15T08:09:15.150Z,4.07
2018-12-15T08:13:29.426Z,3.77
2018-12-15T08:17:41.217Z,5.30
2018-12-15T08:21:53.307Z,4.63
2018-12-15T08:26:05.249Z,3.97
2018-12-15T08:30:17.499Z,4.53
2018-12-15T08:34:29.552Z,7.30
2018-12-15T08:38:41.661Z,3.57
2018-12-15T08:42:53.886Z,3.60
2018-12-15T08:47:05.996Z,3.23
2018-12-15T08:51:18.437Z,3.47
2018-12-15T08:55:30.631Z,3.43
2018-12-15T08:59:42.623Z,4.27
2018-12-15T09:03:54.635Z,3.63
2018-12-15T09:08:06.632Z,3.20
2018-12-15T09:12:18.747Z,2.83
2018-12-15T09:16:30.836Z,2.90
2018-12-15T09:20:45.566Z,2.77
2018-12-15T09:24:57.448Z,4.57
2018-12-15T09:29:09.250Z,5.30
2018-12-15T09:33:21.133Z,4.83
2018-12-15T09:37:33.177Z,4.67
2018-12-15T09:41:45.282Z,5.50
2018-12-15T09:45:57.287Z,6.13
2018-12-15T09:50:09.374Z,5.67
2018-12-15T09:54:21.362Z,5.97
2018-12-15T09:58:33.488Z,6.17
2018-12-15T10:02:45.649Z,4.27
2018-12-15T10:06:57.760Z,5.63
2018-12-15T10:11:09.911Z,5.50
2018-12-15T10:15:21.986Z,5.77
2018-12-15T10:19:34.098Z,5.33
2018-12-15T10:23:46.227Z,5.37
2018-12-15T10:27:57.836Z,6.53
2018-12-15T10:32:14.507Z,4.93
2018-12-15T10:36:26.299Z,6.33
2018-12-15T10:40:38.240Z,6.13
2018-12-15T10:44:50.326Z,7.03
2018-12-15T10:49:01.885Z,7.07
2018-12-15T10:53:13.679Z,7.17
2018-12-15T10:57:25.536Z,6.50
2018-12-15T11:01:37.507Z,6.60
2018-12-15T11:05:49.450Z,7.63
2018-12-15T11:10:01.565Z,7.53
2018-12-15T11:14:18.894Z,7.40
2018-12-15T11:18:30.696Z,8.10
2018-12-15T11:22:42.738Z,7.57
2018-12-15T11:26:54.617Z,7.53
2018-12-15T11:31:06.747Z,6.53
2018-12-15T11:35:18.860Z,6.53
2018-12-15T11:39:30.828Z,7.57
2018-12-15T11:43:42.864Z,7.50
2018-12-15T11:47:54.842Z,7.43
2018-12-15T11:52:07.010Z,7.20
2018-12-15T11:56:20.218Z,8.03
2018-12-15T12:00:31.923Z,6.87
2018-12-15T12:04:43.918Z,6.87
2018-12-15T12:08:55.828Z,7.07
2018-12-15T12:13:07.857Z,7.60
2018-12-15T12:17:19.615Z,6.50
2018-12-15T12:21:31.516Z,6.40
2018-12-15T12:25:44.898Z,6.37
2018-12-15T12:29:58.227Z,7.57
2018-12-15T12:34:09.802Z,6.37
2018-12-15T12:38:21.507Z,6.90
2018-12-15T12:42:33.311Z,6.07
2018-12-15T12:46:45.171Z,7.10
2018-12-15T12:50:57.173Z,6.87
2018-12-15T12:55:10.090Z,7.07
2018-12-15T12:59:21.925Z,6.70
2018-12-15T13:03:33.872Z,6.77
2018-12-15T13:07:45.912Z,7.50
2018-12-15T13:11:58.067Z,6.50
2018-12-15T13:16:10.032Z,7.00
2018-12-15T13:20:22.194Z,8.00
2018-12-15T13:24:34.247Z,8.33
2018-12-15T13:28:46.360Z,7.27
2018-12-15T13:32:58.454Z,7.80
2018-12-15T13:37:10.484Z,6.30
2018-12-15T13:41:22.632Z,6.60
2018-12-15T13:45:34.688Z,6.90
2018-12-15T13:49:46.805Z,6.93
2018-12-15T13:53:58.926Z,6.70
2018-12-15T13:58:10.808Z,6.40
2018-12-15T14:02:23.037Z,7.70
2018-12-15T14:06:34.857Z,7.67
2018-12-15T14:10:46.615Z,7.63
2018-12-15T14:14:58.767Z,7.67
2018-12-15T14:19:10.467Z,7.37
2018-12-15T14:23:22.324Z,8.53
2018-12-15T14:27:34.243Z,7.87
2018-12-15T14:31:46.347Z,7.37
2018-12-15T14:35:58.476Z,6.07
2018-12-15T14:40:10.667Z,6.57
2018-12-15T14:44:22.768Z,6.03
2018-12-15T14:48:34.870Z,6.00
2018-12-15T14:52:46.975Z,5.83
2018-12-15T14:56:58.991Z,7.17
2018-12-15T15:01:11.190Z,5.97
2018-12-15T15:05:23.551Z,6.57
2018-12-15T15:09:35.546Z,7.33
2018-12-15T15:13:47.539Z,6.83
2018-12-15T15:17:59.539Z,7.00
2018-12-15T15:22:12.378Z,6.13
2018-12-15T15:26:24.099Z,6.70
2018-12-15T15:30:35.947Z,6.77
2018-12-15T15:34:47.764Z,6.03
2018-12-15T15:38:59.928Z,6.93
2018-12-15T15:43:12.130Z,8.07
2018-12-15T15:47:24.078Z,6.97
2018-12-15T15:51:36.208Z,6.30
2018-12-15T15:55:48.188Z,7.50
2018-12-15T16:00:00.366Z,6.53
2018-12-15T16:04:12.423Z,7.50
2018-12-15T16:08:24.546Z,7.37
2018-12-15T16:12:36.783Z,6.50
2018-12-15T16:16:48.660Z,7.47
2018-12-15T16:21:01.000Z,7.50
2018-12-15T16:25:12.975Z,8.33
2018-12-15T16:29:25.179Z,7.70
2018-12-15T16:33:37.712Z,8.33
2018-12-15T16:37:49.623Z,8.20
2018-12-15T16:42:01.614Z,6.83
2018-12-15T16:46:13.645Z,7.67
2018-12-15T16:50:25.739Z,7.77
2018-12-15T16:54:37.761Z,8.77
2018-12-15T16:58:49.818Z,8.07
2018-12-15T17:03:01.945Z,17.30
2018-12-15T17:07:13.935Z,29.67
2018-12-15T17:11:26.139Z,11.80
2018-12-15T17:15:38.939Z,11.10
2018-12-15T17:19:50.606Z,9.87
2018-12-15T17:24:05.310Z,13.97
2018-12-15T17:28:16.947Z,9.20
2018-12-15T17:32:28.780Z,7.20
2018-12-15T17:36:40.490Z,6.97
2018-12-15T17:40:52.442Z,7.47
2018-12-15T17:45:04.477Z,7.77
2018-12-15T17:49:16.362Z,8.60
2018-12-15T17:53:28.357Z,27.93
2018-12-15T17:57:40.458Z,14.57
2018-12-15T18:01:52.728Z,10.40
2018-12-15T18:06:04.763Z,7.00
2018-12-15T18:10:17.049Z,8.87
2018-12-15T18:14:29.079Z,8.10
2018-12-15T18:18:41.134Z,6.33
2018-12-15T18:22:53.210Z,6.40
2018-12-15T18:27:05.114Z,7.10
2018-12-15T18:31:17.226Z,5.47
2018-12-15T18:35:29.238Z,5.67
2018-12-15T18:39:41.432Z,6.13
2018-12-15T18:43:53.438Z,5.70
2018-12-15T18:48:05.118Z,5.13
2018-12-15T18:52:16.886Z,5.70
2018-12-15T18:56:28.931Z,11.43
2018-12-15T19:00:40.684Z,6.93
2018-12-15T19:04:52.563Z,6.77
2018-12-15T19:09:05.403Z,6.60
2018-12-15T19:13:17.803Z,4.57
2018-12-15T19:17:29.991Z,4.67
2018-12-15T19:21:42.123Z,5.27
2018-12-15T19:25:54.211Z,4.97
2018-12-15T19:30:07.449Z,4.83
2018-12-15T19:34:19.147Z,4.63
2018-12-15T19:38:31.306Z,4.80
2018-12-15T19:42:44.007Z,4.23
2018-12-15T19:46:56.082Z,8.67
2018-12-15T19:51:07.841Z,8.87
2018-12-15T19:55:19.686Z,11.60
2018-12-15T19:59:31.500Z,16.03
2018-12-15T20:03:43.616Z,6.13
2018-12-15T20:07:55.695Z,5.43
2018-12-15T20:12:07.815Z,5.50
2018-12-15T20:16:19.815Z,5.43
2018-12-15T20:20:32.059Z,8.17
2018-12-15T20:24:44.240Z,5.50
2018-12-15T20:28:56.359Z,7.27
2018-12-15T20:33:08.463Z,8.30
2018-12-15T20:37:20.556Z,6.47
2018-12-15T20:41:32.682Z,9.60
2018-12-15T20:45:44.884Z,6.37
2018-12-15T20:49:56.994Z,6.57
2018-12-15T20:54:09.159Z,6.40
2018-12-15T20:58:21.119Z,10.63
2018-12-15T21:02:33.288Z,9.03
2018-12-15T21:06:45.324Z,5.70
2018-12-15T21:10:57.440Z,8.93
2018-12-15T21:15:18.468Z,5.70
2018-12-15T21:19:30.197Z,13.70
2018-12-15T21:23:41.999Z,6.50
2018-12-15T21:27:53.778Z,11.43
2018-12-15T21:32:05.767Z,6.77
2018-12-15T21:36:17.888Z,5.03
2018-12-15T21:40:29.882Z,4.70
2018-12-15T21:44:41.982Z,5.00
2018-12-15T21:48:54.082Z,6.40
2018-12-15T21:53:06.164Z,6.87
2018-12-15T21:57:18.469Z,6.80
2018-12-15T22:01:30.531Z,6.33
2018-12-15T22:05:42.616Z,11.13
2018-12-15T22:09:54.749Z,9.87
2018-12-15T22:14:06.940Z,6.60
2018-12-15T22:18:19.047Z,5.43
2018-12-15T22:22:31.279Z,4.33
2018-12-15T22:26:42.809Z,4.90
2018-12-15T22:30:54.527Z,4.70
2018-12-15T22:35:06.492Z,4.20
2018-12-15T22:39:19.796Z,4.63
2018-12-15T22:43:31.899Z,3.97
2018-12-15T22:47:43.482Z,5.40
2018-12-15T22:51:55.150Z,4.70
2018-12-15T22:56:06.906Z,3.93
2018-12-15T23:00:18.930Z,3.50
2018-12-15T23:04:31.078Z,4.30
2018-12-15T23:08:43.126Z,3.47
2018-12-15T23:12:55.172Z,3.53
2018-12-15T23:17:07.155Z,4.23
2018-12-15T23:21:19.291Z,3.47
2018-12-15T23:25:31.263Z,3.40
2018-12-15T23:29:43.576Z,3.80
2018-12-15T23:33:55.701Z,3.40
2018-12-15T23:38:07.734Z,3.47
2018-12-15T23:42:19.932Z,3.23
2018-12-15T23:46:31.992Z,3.20
2018-12-15T23:50:43.920Z,3.40
2018-12-15T23:54:55.955Z,4.13
2018-12-15T23:59:08.044Z,4.30
